CheckWX is a tool to help pilots better visualize weather data.  It is not intended as a substitute for an official pre-flight weather briefing.

19:59:37 UTC

YBHM TAF
Hamilton Island Airport
Hamilton Island, Australia
TAF YBHM 251728Z 2518/2606 16018KT 9999 -SHRA SCT015 SCT030 FM260200 15020KT 9999 FEW015 SCT035 TEMPO 2518/2603 9999 -SHRA BKN015

Jun-25@
18:00 UTC

Jun-25 @ 18:00 UTC

Jun-26@
02:00 UTC

Jun-26 @ 02:00 UTC

TAF YBHM 251728Z 2518/2606 16018KT 9999 -SHRA SCT015 SCT030
Wind
  • 160° at 18 KTS
Conditions
Light Rain
Cloud Levels
  • Scattered at 1,500' AGL
  • Scattered at 3,000' AGL

Jun-25@
18:00 UTC

Jun-25 @ 18:00 UTC

Jun-26@
03:00 UTC

Jun-26 @ 03:00 UTC

TEMPO 2518/2603 9999 -SHRA BKN015

Temporary

Temporary Changes expected for less than half the time period

Conditions
Light Rain
Cloud Levels
  • Broken at 1,500' AGL

Jun-26@
02:00 UTC

Jun-26 @ 02:00 UTC

Jun-26@
06:00 UTC

Jun-26 @ 06:00 UTC

FM260200 15020KT 9999 FEW015 SCT035

From

From Standard forecast or significant change

Wind
  • 150° at 20 KTS
Cloud Levels
  • Few at 1,500' AGL
  • Scattered at 3,500' AGL